Du har inga inställningar för hoppväder.nu

Hoppväder.nu

Senast uppdaterat 00:09

UTC-tid

2019-06-25 kl. 22:09


Sol och måne

Solen går upp 2:54 och går ner 24:13 (beräknade cirkatider)
Nästa fullmåne blir om 20 dagar (2019-07-16)

METAR

ESNZ (Åre/Östersunds)
(19 minuter sedan)
ESNZ 252150Z AUTO 22007KT 9999 SCT045/// BKN057/// OVC066/// 12/10 Q1021=















TAF

ESNZ (Åre/Östersunds)
(279 minuter sedan)
ESNZ 251730Z 2518/2522 20007KT CAVOK=





Kodnycklar till TAF och METAR






LHP

(Östersund är område C2a i Sydvästra delen)

Prognos är inte uppdaterad




Spotting

Hur fungerar spotthjälpen och Vindkartan?

Markvind är ca 0 m/s.



Vindkartan

Senast uppdaterad 00:09




All data kommer från LFV.se